Time;durP1;ratioP1;P1;durP2;ratioP2;P2;SDS_P1;SDS_P2;PMS_P1;PMS_P2;Temp;Humidity;BMP_temperature;BMP_pressure;BME280_temperature;BME280_humidity;BME280_pressure;Samples;Min_cycle;Max_cycle;Signal;HPM_P1;HPM_P2
2023/06/12 00:01:28;;;;;;;4.40;2.72;;;23.70;81.60;;;;;;10986705;32;20015;-74
2023/06/12 00:07:31;;;;;;;1.90;1.20;;;23.60;81.70;;;;;;10981687;32;20053;-74
2023/06/12 00:13:33;;;;;;;3.62;2.25;;;23.50;81.70;;;;;;10984589;32;20011;-74
2023/06/12 00:19:35;;;;;;;3.35;1.83;;;23.60;81.60;;;;;;10984319;32;20042;-74
2023/06/12 00:25:39;;;;;;;1.85;1.40;;;23.50;81.40;;;;;;10983975;32;20093;-74
2023/06/12 00:31:41;;;;;;;1.90;1.42;;;23.40;81.50;;;;;;10983958;32;20015;-74
2023/06/12 00:37:43;;;;;;;5.28;1.27;;;23.40;81.70;;;;;;10983821;32;20053;-75
2023/06/12 00:43:45;;;;;;;2.22;1.60;;;23.30;81.90;;;;;;10967967;32;20302;-74
2023/06/12 00:49:48;;;;;;;2.70;1.65;;;23.30;82.20;;;;;;10983162;32;20018;-74
2023/06/12 00:55:50;;;;;;;2.50;1.80;;;23.30;82.20;;;;;;10983110;32;20047;-74
2023/06/12 01:01:53;;;;;;;2.30;1.30;;;23.30;82.20;;;;;;10982943;32;20018;-74
2023/06/12 01:08:03;;;;;;;5.12;2.05;;;23.30;82.30;;;;;;10982594;32;20022;-74
2023/06/12 01:14:06;;;;;;;1.90;1.48;;;23.30;82.70;;;;;;10982055;32;20380;-74
2023/06/12 01:20:11;;;;;;;3.47;1.50;;;23.30;82.80;;;;;;10982085;32;20045;-74
2023/06/12 01:26:25;;;;;;;2.20;1.58;;;23.20;82.90;;;;;;10981828;32;20042;-74
2023/06/12 01:32:29;;;;;;;1.48;1.25;;;23.20;83.10;;;;;;10981794;32;20041;-74
2023/06/12 01:38:34;;;;;;;8.95;1.52;;;23.20;83.10;;;;;;10981586;32;20372;-74
2023/06/12 01:44:36;;;;;;;1.37;1.10;;;23.30;83.10;;;;;;10981271;32;20014;-74
2023/06/12 01:50:38;;;;;;;2.55;1.48;;;23.30;83.00;;;;;;10980990;32;20027;-74
2023/06/12 01:56:42;;;;;;;3.00;1.27;;;23.30;82.90;;;;;;10980747;32;20037;-74
2023/06/12 02:02:45;;;;;;;3.10;1.85;;;23.30;83.00;;;;;;10967103;32;20015;-74
2023/06/12 02:08:50;;;;;;;1.77;1.05;;;23.30;83.10;;;;;;10980435;32;20023;-74
2023/06/12 02:14:53;;;;;;;1.65;1.30;;;23.30;83.00;;;;;;10980340;32;20015;-75
2023/06/12 02:20:55;;;;;;;2.50;1.50;;;23.30;82.90;;;;;;10965243;32;20034;-74
2023/06/12 02:26:57;;;;;;;2.97;1.50;;;23.30;82.90;;;;;;10975192;32;20023;-74
2023/06/12 02:33:02;;;;;;;1.70;1.12;;;23.30;82.80;;;;;;10979449;32;20081;-74
2023/06/12 02:39:05;;;;;;;2.25;1.65;;;23.20;82.70;;;;;;10979290;32;20011;-73
2023/06/12 02:45:08;;;;;;;2.05;1.52;;;23.10;82.60;;;;;;10979567;32;20344;-73
2023/06/12 02:51:10;;;;;;;2.67;1.60;;;23.10;82.60;;;;;;10979193;32;20072;-73
2023/06/12 02:57:12;;;;;;;2.33;1.50;;;23.10;82.40;;;;;;10979291;32;20046;-73
2023/06/12 03:03:14;;;;;;;4.95;2.67;;;23.00;82.70;;;;;;10979027;32;20002;-73
2023/06/12 03:09:16;;;;;;;4.05;2.42;;;23.00;83.00;;;;;;10978896;32;20408;-73
2023/06/12 03:15:19;;;;;;;3.35;2.20;;;23.00;82.90;;;;;;10979597;32;20407;-73
2023/06/12 03:21:21;;;;;;;4.25;2.12;;;22.90;82.70;;;;;;10965625;32;20401;-73
2023/06/12 03:27:23;;;;;;;5.25;2.58;;;22.80;82.80;;;;;;10978643;32;20336;-73
2023/06/12 03:33:26;;;;;;;4.07;2.22;;;22.80;82.80;;;;;;10978510;32;20019;-73
2023/06/12 03:39:29;;;;;;;3.85;2.37;;;22.80;82.80;;;;;;10985712;32;20076;-73
2023/06/12 03:45:32;;;;;;;3.78;2.25;;;22.80;83.10;;;;;;10985552;32;20018;-73
2023/06/12 03:51:35;;;;;;;3.03;2.12;;;22.80;83.30;;;;;;10971874;32;20431;-73
2023/06/12 03:57:38;;;;;;;3.12;1.75;;;22.70;83.60;;;;;;10984787;32;20041;-73
2023/06/12 04:03:44;;;;;;;5.78;2.42;;;22.70;83.40;;;;;;10970485;32;20030;-73
2023/06/12 04:09:46;;;;;;;5.15;3.15;;;22.70;83.20;;;;;;10983065;32;20576;-73
2023/06/12 04:15:48;;;;;;;4.32;2.33;;;22.70;83.20;;;;;;10984425;32;20007;-73
2023/06/12 04:21:51;;;;;;;3.00;1.95;;;22.70;83.10;;;;;;10984192;32;20014;-73
2023/06/12 04:27:53;;;;;;;3.08;1.77;;;22.70;83.00;;;;;;10983980;32;20331;-73
2023/06/12 04:33:55;;;;;;;3.17;1.90;;;22.60;83.10;;;;;;10979568;32;20337;-73
2023/06/12 04:39:57;;;;;;;4.53;1.80;;;22.60;83.20;;;;;;10983589;32;20014;-73
2023/06/12 04:46:00;;;;;;;3.70;2.00;;;22.70;83.00;;;;;;10982847;32;20073;-73
2023/06/12 04:52:03;;;;;;;3.85;2.33;;;22.80;83.20;;;;;;10983096;32;20056;-73
2023/06/12 04:58:06;;;;;;;3.22;2.05;;;22.90;83.00;;;;;;10943766;32;20027;-73
2023/06/12 05:04:08;;;;;;;3.10;1.85;;;23.00;82.80;;;;;;10926978;32;20054;-73
2023/06/12 05:10:10;;;;;;;3.58;2.20;;;23.00;83.20;;;;;;10927240;32;20428;-73
2023/06/12 05:16:12;;;;;;;2.92;1.92;;;23.00;83.30;;;;;;10944470;32;20041;-73
2023/06/12 05:22:14;;;;;;;3.72;2.15;;;23.00;83.20;;;;;;10944131;32;20037;-73
2023/06/12 05:28:17;;;;;;;3.30;2.15;;;23.00;83.10;;;;;;10943929;32;20027;-73
2023/06/12 05:34:20;;;;;;;3.35;1.87;;;23.10;83.00;;;;;;10943972;32;20054;-73
2023/06/12 05:40:22;;;;;;;2.97;1.95;;;23.30;82.90;;;;;;10943461;32;20015;-74
2023/06/12 05:46:24;;;;;;;3.22;1.80;;;23.50;82.80;;;;;;10945715;32;20027;-73
2023/06/12 05:52:37;;;;;;;6.47;3.83;;;23.60;82.70;;;;;;10943518;32;19999;-73
2023/06/12 05:58:42;;;;;;;4.87;3.33;;;23.80;82.60;;;;;;10961905;32;20328;-74
2023/06/12 06:04:44;;;;;;;3.72;2.12;;;24.10;82.50;;;;;;10980206;32;20010;-73
2023/06/12 06:10:46;;;;;;;2.12;1.67;;;24.20;82.60;;;;;;10980449;32;20031;-73
2023/06/12 06:16:49;;;;;;;4.18;1.87;;;24.40;82.10;;;;;;10979107;32;20041;-73
2023/06/12 06:22:51;;;;;;;1.77;1.08;;;24.30;82.30;;;;;;10979683;32;20044;-74
2023/06/12 06:28:54;;;;;;;4.03;1.62;;;24.20;82.70;;;;;;10964209;32;20026;-73
2023/06/12 06:34:56;;;;;;;2.33;1.45;;;24.10;82.80;;;;;;10963530;32;20385;-73
2023/06/12 06:40:59;;;;;;;3.28;1.83;;;24.10;82.70;;;;;;10978960;32;20023;-74
2023/06/12 06:47:03;;;;;;;1.40;0.98;;;24.10;82.80;;;;;;10978914;32;20026;-73
2023/06/12 06:53:06;;;;;;;1.95;1.40;;;24.30;82.60;;;;;;10978141;32;20022;-74
2023/06/12 06:59:08;;;;;;;3.72;2.42;;;24.60;82.10;;;;;;10965522;32;20037;-73
2023/06/12 07:05:11;;;;;;;5.55;2.30;;;24.80;81.40;;;;;;10978773;32;20019;-74
2023/06/12 07:11:13;;;;;;;3.50;2.10;;;24.80;81.40;;;;;;10983311;32;20046;-74
2023/06/12 07:17:17;;;;;;;6.35;2.62;;;24.90;81.30;;;;;;10986802;32;20041;-73
2023/06/12 07:23:19;;;;;;;5.03;2.55;;;25.00;80.50;;;;;;10986599;32;20029;-72
2023/06/12 07:29:23;;;;;;;4.95;2.53;;;25.00;79.30;;;;;;10988060;27;20493;-72
2023/06/12 07:35:25;;;;;;;6.30;3.85;;;25.10;79.00;;;;;;10985753;32;20041;-73
2023/06/12 07:41:27;;;;;;;2.87;2.00;;;25.10;77.90;;;;;;10967681;32;20034;-74
2023/06/12 07:47:30;;;;;;;4.97;3.15;;;25.00;77.50;;;;;;10967138;32;20038;-76
2023/06/12 07:53:32;;;;;;;2.87;1.98;;;25.20;77.90;;;;;;10985306;32;20345;-74
2023/06/12 07:59:34;;;;;;;2.87;1.85;;;25.30;76.90;;;;;;10984975;32;20053;-74
2023/06/12 08:05:37;;;;;;;3.28;2.30;;;25.20;77.00;;;;;;10985535;32;20014;-74
2023/06/12 08:11:40;;;;;;;3.17;1.92;;;25.20;77.20;;;;;;10984677;32;20027;-76
2023/06/12 08:18:24;;;;;;;10.98;2.87;;;25.30;76.80;;;;;;10984694;32;20349;-77
2023/06/12 08:24:30;;;;;;;4.00;2.37;;;25.40;76.50;;;;;;10983421;32;20044;-73
2023/06/12 08:30:32;;;;;;;4.32;2.78;;;25.50;76.50;;;;;;10980347;32;20392;-76
2023/06/12 08:36:35;;;;;;;4.03;3.03;;;25.60;75.90;;;;;;10980976;32;20019;-75
2023/06/12 08:42:38;;;;;;;2.70;2.10;;;25.60;75.10;;;;;;10980252;32;20340;-75
2023/06/12 08:48:40;;;;;;;5.30;2.50;;;25.60;75.30;;;;;;10983590;32;20027;-76
2023/06/12 08:54:45;;;;;;;6.62;3.22;;;25.80;75.30;;;;;;10970551;32;20019;-74
2023/06/12 09:01:08;;;;;;;5.78;3.35;;;26.00;75.40;;;;;;10969618;32;20018;-74
2023/06/12 09:07:12;;;;;;;5.95;2.47;;;26.00;75.50;;;;;;10983653;32;20049;-74
2023/06/12 09:13:14;;;;;;;5.12;3.15;;;26.20;76.60;;;;;;10968573;32;20396;-76
2023/06/12 09:19:16;;;;;;;4.40;3.12;;;26.30;75.80;;;;;;10982183;32;20029;-74
2023/06/12 09:25:25;;;;;;;3.50;2.15;;;26.50;75.60;;;;;;10983265;32;20018;-74
2023/06/12 09:31:27;;;;;;;3.95;2.95;;;26.70;75.00;;;;;;10955214;32;20425;-73
2023/06/12 09:37:33;;;;;;;5.80;3.50;;;26.80;74.30;;;;;;10982953;32;20325;-75
2023/06/12 09:43:36;;;;;;;3.67;2.40;;;26.90;75.00;;;;;;10954541;32;20022;-74
2023/06/12 09:49:38;;;;;;;6.05;3.03;;;26.90;74.00;;;;;;10981300;32;20023;-74
2023/06/12 09:55:42;;;;;;;3.70;2.37;;;27.10;73.10;;;;;;10981014;32;20026;-74
2023/06/12 10:02:05;;;;;;;6.93;2.60;;;27.00;73.50;;;;;;10953125;32;20400;-74
2023/06/12 10:08:43;;;;;;;2.80;1.80;;;27.10;72.40;;;;;;10979429;32;20056;-73
2023/06/12 10:14:46;;;;;;;3.30;2.42;;;27.30;71.70;;;;;;10979953;32;20033;-73
2023/06/12 10:20:50;;;;;;;3.17;2.22;;;27.40;70.80;;;;;;10979511;32;20026;-74
2023/06/12 10:26:56;;;;;;;4.10;2.25;;;27.60;70.70;;;;;;10975813;32;20026;-73
2023/06/12 10:33:13;;;;;;;4.45;2.65;;;27.80;70.50;;;;;;10979026;32;20019;-73
2023/06/12 10:39:16;;;;;;;3.17;2.05;;;27.90;69.00;;;;;;10979308;32;20044;-75
2023/06/12 10:45:21;;;;;;;3.47;1.95;;;28.10;68.30;;;;;;10978746;32;20015;-74
2023/06/12 10:51:33;;;;;;;3.37;2.12;;;27.70;69.00;;;;;;10978920;32;20019;-74
2023/06/12 10:57:35;;;;;;;4.25;2.90;;;27.40;70.40;;;;;;10977594;32;20041;-74
2023/06/12 11:03:39;;;;;;;2.87;2.05;;;27.40;69.60;;;;;;10978337;32;20026;-74
2023/06/12 11:09:41;;;;;;;3.58;2.22;;;27.60;67.70;;;;;;10974894;32;20451;-73
2023/06/12 11:15:47;;;;;;;5.10;2.47;;;27.90;66.30;;;;;;10979185;32;20037;-73
2023/06/12 11:21:49;;;;;;;3.05;1.90;;;28.30;65.20;;;;;;10978377;32;20011;-73
2023/06/12 11:27:55;;;;;;;3.85;2.62;;;28.80;63.70;;;;;;10978220;32;20493;-73
2023/06/12 11:34:01;;;;;;;6.62;2.53;;;29.20;62.20;;;;;;10978496;32;20014;-73
2023/06/12 11:40:13;;;;;;;4.70;2.87;;;28.80;62.30;;;;;;10978645;32;20061;-73
2023/06/12 11:46:15;;;;;;;3.35;2.78;;;28.70;62.60;;;;;;10978538;32;20033;-73
2023/06/12 11:52:18;;;;;;;4.00;2.28;;;28.30;64.10;;;;;;10978217;32;20046;-73
2023/06/12 11:58:20;;;;;;;3.55;2.85;;;28.00;64.10;;;;;;10982878;32;20015;-73
2023/06/12 12:04:22;;;;;;;6.55;2.92;;;27.80;64.30;;;;;;10980794;32;20287;-73
2023/06/12 12:10:28;;;;;;;4.15;3.17;;;27.70;65.50;;;;;;10984808;32;20389;-73
2023/06/12 12:16:37;;;;;;;3.70;2.55;;;28.30;64.40;;;;;;10983614;32;20041;-73
2023/06/12 12:22:42;;;;;;;3.30;2.40;;;28.50;63.10;;;;;;10984361;32;20033;-74
2023/06/12 12:28:45;;;;;;;10.27;2.28;;;28.40;63.60;;;;;;10983908;32;20018;-74
2023/06/12 12:34:47;;;;;;;2.65;2.10;;;28.30;63.70;;;;;;10979828;32;20053;-74
2023/06/12 12:40:49;;;;;;;4.15;2.40;;;28.30;64.40;;;;;;10969607;32;20030;-73
2023/06/12 12:46:52;;;;;;;3.28;2.15;;;28.60;63.60;;;;;;10983435;32;20045;-73
2023/06/12 12:52:54;;;;;;;4.85;2.87;;;28.80;62.90;;;;;;10983279;32;20381;-72
2023/06/12 12:58:56;;;;;;;4.15;2.10;;;29.10;61.10;;;;;;10983137;32;20329;-73
2023/06/12 13:04:58;;;;;;;6.82;3.28;;;29.10;63.60;;;;;;10969440;32;20302;-72
2023/06/12 13:11:00;;;;;;;3.70;2.00;;;29.20;62.70;;;;;;10982151;32;20400;-74
2023/06/12 13:17:04;;;;;;;4.47;1.95;;;29.30;61.70;;;;;;10978222;32;20344;-72
2023/06/12 13:23:05;;;;;;;7.78;3.28;;;29.30;59.60;;;;;;10982039;32;20014;-75
2023/06/12 13:29:07;;;;;;;2.33;1.80;;;29.30;61.40;;;;;;10951254;32;20393;-72
2023/06/12 13:35:11;;;;;;;3.97;2.28;;;29.20;61.40;;;;;;10980742;32;20022;-71
2023/06/12 13:41:12;;;;;;;4.72;2.87;;;29.30;59.90;;;;;;10977721;32;20055;-70
2023/06/12 13:47:14;;;;;;;4.82;3.08;;;29.30;59.90;;;;;;10946428;32;20046;-73
2023/06/12 13:53:17;;;;;;;3.47;1.83;;;29.30;61.40;;;;;;10943425;32;20303;-71
2023/06/12 13:59:20;;;;;;;4.35;1.70;;;29.20;62.40;;;;;;10954920;32;20026;-70
2023/06/12 14:06:06;;;;;;;3.60;2.30;;;29.30;63.10;;;;;;10980712;32;20037;-71
2023/06/12 14:12:08;;;;;;;5.10;2.67;;;29.30;60.50;;;;;;10980510;32;20023;-71
2023/06/12 14:18:11;;;;;;;2.95;2.20;;;29.30;59.60;;;;;;10979821;32;20014;-70
2023/06/12 14:24:13;;;;;;;3.47;2.08;;;29.40;58.20;;;;;;10980121;32;20332;-72
2023/06/12 14:30:15;;;;;;;2.53;2.10;;;29.40;57.70;;;;;;10845113;32;20051;-72
2023/06/12 14:36:17;;;;;;;3.50;1.92;;;29.40;57.30;;;;;;10788036;33;20039;-71
2023/06/12 14:42:19;;;;;;;3.78;2.25;;;29.50;58.00;;;;;;10788017;33;20046;-71
2023/06/12 14:48:21;;;;;;;4.10;2.40;;;29.50;57.80;;;;;;10838390;32;20051;-71
2023/06/12 14:54:23;;;;;;;5.05;2.45;;;29.50;57.40;;;;;;10787747;33;20043;-71
2023/06/12 15:00:25;;;;;;;3.37;2.53;;;29.50;57.30;;;;;;10787666;33;20390;-71
2023/06/12 15:06:27;;;;;;;2.83;1.77;;;29.50;57.50;;;;;;10783667;33;20322;-71
2023/06/12 15:12:29;;;;;;;3.67;1.85;;;29.50;57.20;;;;;;10787215;33;20391;-71
2023/06/12 15:18:32;;;;;;;4.05;1.75;;;29.40;56.80;;;;;;10783207;33;20063;-71
2023/06/12 15:24:49;;;;;;;;;;;29.40;57.70;;;;;;10796670;27;20025;-71
2023/06/12 15:30:52;;;;;;;2.83;1.92;;;29.30;60.10;;;;;;10942565;32;19926;-71
2023/06/12 15:37:02;;;;;;;4.07;1.85;;;29.30;59.20;;;;;;10934889;32;20015;-72
2023/06/12 15:43:06;;;;;;;4.45;2.53;;;29.30;58.50;;;;;;10930700;32;20098;-71
2023/06/12 15:49:10;;;;;;;5.85;2.58;;;29.40;57.80;;;;;;10947755;32;20049;-71
2023/06/12 15:55:12;;;;;;;2.60;1.67;;;29.30;58.80;;;;;;10947668;32;20117;-71
2023/06/12 16:01:14;;;;;;;4.97;2.55;;;29.30;59.60;;;;;;10947434;32;20015;-71
2023/06/12 16:07:16;;;;;;;3.03;1.77;;;29.30;58.80;;;;;;10947468;32;20045;-71
2023/06/12 16:13:36;;;;;;;3.08;2.03;;;29.30;58.20;;;;;;10947199;32;20023;-72
2023/06/12 16:19:38;;;;;;;2.72;2.05;;;29.20;58.10;;;;;;10933344;32;20042;-72
2023/06/12 16:26:02;;;;;;;2.03;1.60;;;29.20;58.30;;;;;;10946300;32;20015;-71
2023/06/12 16:32:04;;;;;;;1.77;1.58;;;29.30;57.70;;;;;;10946401;32;20431;-72
2023/06/12 16:38:07;;;;;;;2.53;1.65;;;29.30;57.90;;;;;;10946181;32;20015;-72
2023/06/12 16:44:09;;;;;;;3.25;1.77;;;29.30;57.80;;;;;;10945269;32;20019;-71
2023/06/12 16:50:11;;;;;;;2.70;1.73;;;29.30;57.70;;;;;;10945909;32;20018;-72
2023/06/12 16:56:14;;;;;;;2.25;1.45;;;29.30;57.90;;;;;;10945776;32;20038;-72
2023/06/12 17:02:29;;;;;;;4.00;1.92;;;29.40;57.40;;;;;;10945420;32;20015;-72
2023/06/12 17:08:31;;;;;;;4.05;2.17;;;29.40;57.50;;;;;;10944741;32;20031;-73
2023/06/12 17:14:35;;;;;;;1.87;1.30;;;29.30;57.60;;;;;;10944927;32;20041;-72
2023/06/12 17:20:37;;;;;;;2.00;1.50;;;29.30;57.90;;;;;;10940611;32;20019;-72
2023/06/12 17:27:01;;;;;;;2.08;1.40;;;29.30;58.30;;;;;;10944396;32;20041;-72
2023/06/12 17:33:03;;;;;;;1.25;0.82;;;29.20;58.00;;;;;;10930547;32;20070;-72
2023/06/12 17:39:05;;;;;;;1.87;1.08;;;29.10;58.60;;;;;;10944163;32;20344;-72
2023/06/12 17:45:07;;;;;;;1.77;0.88;;;29.10;59.10;;;;;;10930411;32;20435;-72
2023/06/12 17:51:10;;;;;;;2.58;1.48;;;29.10;58.90;;;;;;10930877;32;20023;-72
2023/06/12 17:57:12;;;;;;;0.77;0.65;;;29.30;58.80;;;;;;10928454;32;20027;-72
2023/06/12 18:03:14;;;;;;;1.83;1.08;;;29.60;58.70;;;;;;10943353;32;20385;-72
2023/06/12 18:09:16;;;;;;;1.48;0.90;;;29.30;59.50;;;;;;10943163;32;20046;-72
2023/06/12 18:15:18;;;;;;;1.42;1.25;;;29.00;60.50;;;;;;10942992;32;20025;-72
2023/06/12 18:21:22;;;;;;;2.53;1.23;;;28.80;61.60;;;;;;10916621;32;20027;-72
2023/06/12 18:27:28;;;;;;;2.05;1.50;;;28.50;62.40;;;;;;10942396;32;20332;-72
2023/06/12 18:33:30;;;;;;;1.75;1.00;;;28.30;62.90;;;;;;10942901;32;20023;-72
2023/06/12 18:39:33;;;;;;;1.70;1.33;;;28.20;63.40;;;;;;10942214;32;20034;-72
2023/06/12 18:45:35;;;;;;;2.08;1.45;;;28.00;64.20;;;;;;10928735;32;20042;-72
2023/06/12 18:51:37;;;;;;;3.55;1.58;;;27.90;65.30;;;;;;10941711;32;20049;-72
2023/06/12 18:57:39;;;;;;;2.37;1.55;;;27.80;66.00;;;;;;10940616;32;20439;-72
2023/06/12 19:03:41;;;;;;;2.15;1.80;;;27.70;66.70;;;;;;10941698;32;20419;-72
2023/06/12 19:10:04;;;;;;;3.78;2.17;;;27.60;67.60;;;;;;10948411;32;20405;-72
2023/06/12 19:16:06;;;;;;;3.25;1.75;;;27.40;68.60;;;;;;10935207;32;20027;-72
2023/06/12 19:22:09;;;;;;;3.37;2.03;;;27.40;69.20;;;;;;10949029;32;20049;-72
2023/06/12 19:28:12;;;;;;;2.53;1.50;;;27.40;69.90;;;;;;10948638;32;20045;-73
2023/06/12 19:34:14;;;;;;;3.05;1.60;;;27.30;69.80;;;;;;10944663;32;20027;-72
2023/06/12 19:40:16;;;;;;;4.12;1.75;;;27.30;70.20;;;;;;10947951;32;20026;-73
2023/06/12 19:46:19;;;;;;;2.75;1.65;;;27.20;70.20;;;;;;10948216;32;20018;-73
2023/06/12 19:52:21;;;;;;;1.60;1.02;;;27.20;70.50;;;;;;10921374;32;20053;-73
2023/06/12 19:58:23;;;;;;;2.60;1.67;;;27.10;70.70;;;;;;10946378;32;20081;-73
2023/06/12 20:04:27;;;;;;;2.15;1.60;;;27.00;70.90;;;;;;10933664;32;20087;-72
2023/06/12 20:10:31;;;;;;;2.25;1.42;;;26.90;71.20;;;;;;10947231;32;20065;-73
2023/06/12 20:16:34;;;;;;;2.53;1.83;;;26.90;71.30;;;;;;10945996;32;20070;-72
2023/06/12 20:22:36;;;;;;;2.30;1.73;;;26.80;71.10;;;;;;10946811;32;20041;-73
2023/06/12 20:28:38;;;;;;;2.25;1.70;;;26.80;71.20;;;;;;10932278;32;20344;-73
2023/06/12 20:34:40;;;;;;;1.87;1.40;;;26.80;71.50;;;;;;10946487;32;20435;-73
2023/06/12 20:40:42;;;;;;;2.72;1.77;;;26.70;71.90;;;;;;10946264;32;20019;-73
2023/06/12 20:46:45;;;;;;;2.80;1.73;;;26.70;72.30;;;;;;10932695;32;20023;-73
2023/06/12 20:53:11;;;;;;;5.32;2.08;;;26.60;72.40;;;;;;10945808;32;20023;-72
2023/06/12 20:59:13;;;;;;;4.00;2.72;;;26.60;72.50;;;;;;10945610;32;20441;-73
2023/06/12 21:05:15;;;;;;;1.70;1.30;;;26.60;72.80;;;;;;10945471;32;20389;-73
2023/06/12 21:11:32;;;;;;;4.05;2.58;;;26.50;73.20;;;;;;10918709;32;20443;-73
2023/06/12 21:17:34;;;;;;;3.58;2.12;;;26.40;73.40;;;;;;10945033;32;20368;-72
2023/06/12 21:23:36;;;;;;;2.35;1.67;;;26.30;73.80;;;;;;10942270;32;20045;-73
2023/06/12 21:29:38;;;;;;;1.50;0.98;;;26.30;74.10;;;;;;10944061;32;20015;-73
2023/06/12 21:35:40;;;;;;;3.90;1.98;;;26.30;74.20;;;;;;10944431;32;20337;-73
2023/06/12 21:41:42;;;;;;;2.17;1.20;;;26.30;74.30;;;;;;10944222;32;20011;-73
2023/06/12 21:47:44;;;;;;;2.15;1.40;;;26.30;74.40;;;;;;10943846;32;20022;-72
2023/06/12 21:53:46;;;;;;;2.25;1.50;;;26.30;74.60;;;;;;10943584;32;20037;-72
2023/06/12 21:59:48;;;;;;;2.20;1.50;;;26.30;75.00;;;;;;10943574;32;20023;-72
2023/06/12 22:05:51;;;;;;;4.47;2.05;;;26.30;75.80;;;;;;10943296;32;20302;-73
2023/06/12 22:11:53;;;;;;;3.45;1.87;;;26.20;76.00;;;;;;10929130;32;20113;-73
2023/06/12 22:17:55;;;;;;;3.17;2.12;;;26.10;76.60;;;;;;10942958;32;20038;-73
2023/06/12 22:23:57;;;;;;;2.75;1.50;;;26.00;77.00;;;;;;10942638;32;20019;-72
2023/06/12 22:29:59;;;;;;;3.12;2.00;;;26.00;77.00;;;;;;10928910;32;20045;-72
2023/06/12 22:36:01;;;;;;;6.45;3.62;;;26.00;77.10;;;;;;10942323;32;20018;-73
2023/06/12 22:42:03;;;;;;;4.80;4.00;;;26.00;77.50;;;;;;10941010;32;20165;-74
2023/06/12 22:48:08;;;;;;;4.18;3.10;;;25.60;78.40;;;;;;10942105;32;20065;-73
2023/06/12 22:54:10;;;;;;;6.28;4.53;;;25.10;78.40;;;;;;10941819;32;20317;-73
2023/06/12 23:00:13;;;;;;;10.10;4.57;;;24.80;79.00;;;;;;10941739;32;20026;-72
2023/06/12 23:06:15;;;;;;;7.57;4.47;;;24.60;79.80;;;;;;10937606;32;20042;-74
2023/06/12 23:12:22;;;;;;;9.55;4.45;;;24.30;80.10;;;;;;10928713;32;20046;-74
2023/06/12 23:18:29;;;;;;;7.35;3.92;;;24.00;80.40;;;;;;10941489;32;20037;-75
2023/06/12 23:24:33;;;;;;;8.85;5.68;;;23.80;80.80;;;;;;10551809;32;12383540;-74
2023/06/12 23:30:37;;;;;;;6.20;4.05;;;23.50;81.30;;;;;;10963343;27;20068;-75
2023/06/12 23:36:40;;;;;;;6.45;3.58;;;23.30;81.50;;;;;;10962078;32;20031;-76
2023/06/12 23:42:42;;;;;;;6.72;4.60;;;23.10;81.40;;;;;;10975273;32;20026;-75
2023/06/12 23:48:44;;;;;;;8.18;3.00;;;22.90;81.10;;;;;;10975152;32;20068;-74
2023/06/12 23:54:46;;;;;;;4.55;3.50;;;22.80;81.60;;;;;;10980658;32;20045;-74
